Time;durP1;ratioP1;P1;durP2;ratioP2;P2;SDS_P1;SDS_P2;PMS_P1;PMS_P2;Temp;Humidity;BMP_temperature;BMP_pressure;BME280_temperature;BME280_humidity;BME280_pressure;Samples;Min_cycle;Max_cycle;Signal;HPM_P1;HPM_P2
2022/12/30 00:01:39;;;;;;;0.70;0.70;;;7.00;99.90;;;;;;5035644;28;20760;-80
2022/12/30 00:04:06;;;;;;;10.95;2.67;;;7.00;99.90;;;;;;5035110;28;20203;-83
2022/12/30 00:06:34;;;;;;;2.95;1.70;;;7.00;99.90;;;;;;5035549;28;20250;-82
2022/12/30 00:09:01;;;;;;;13.98;1.58;;;6.90;99.90;;;;;;5035272;28;20281;-80
2022/12/30 00:11:30;;;;;;;2.35;1.60;;;7.00;99.90;;;;;;5036515;28;20195;-82
2022/12/30 00:33:43;;;;;;;2.85;0.82;;;6.80;99.90;;;;;;5036066;28;20402;-82
2022/12/30 00:36:10;;;;;;;1.23;0.80;;;6.80;99.90;;;;;;5035427;28;20310;-80
2022/12/30 00:38:39;;;;;;;3.80;2.35;;;6.80;99.90;;;;;;5035037;28;20285;-82
2022/12/30 00:43:50;;;;;;;0.85;0.85;;;6.80;99.90;;;;;;5035262;28;20225;-82
2022/12/30 00:46:18;;;;;;;3.88;1.20;;;6.70;99.90;;;;;;5034743;28;20301;-80
2022/12/30 00:57:00;;;;;;;0.50;0.40;;;6.70;99.90;;;;;;5035332;28;20274;-78
2022/12/30 00:59:28;;;;;;;14.30;1.45;;;6.70;99.90;;;;;;5035834;28;20202;-79
2022/12/30 01:01:55;;;;;;;4.00;2.20;;;6.70;99.90;;;;;;5035377;28;20222;-81
2022/12/30 01:04:22;;;;;;;1.00;0.88;;;6.60;99.90;;;;;;5034672;28;20192;-81
2022/12/30 01:06:48;;;;;;;0.95;0.80;;;6.60;99.90;;;;;;5034656;28;20298;-82
2022/12/30 01:09:17;;;;;;;3.25;1.63;;;6.60;99.90;;;;;;5034744;28;20200;-83
2022/12/30 01:11:43;;;;;;;0.50;0.50;;;6.60;99.90;;;;;;5035327;28;20265;-81
2022/12/30 01:14:10;;;;;;;0.75;0.75;;;6.60;99.90;;;;;;5034758;28;20286;-79
2022/12/30 01:16:37;;;;;;;0.60;0.50;;;6.60;99.90;;;;;;5034415;28;20215;-80
2022/12/30 01:19:04;;;;;;;0.98;0.98;;;6.60;99.90;;;;;;5035000;28;20195;-81
2022/12/30 01:21:31;;;;;;;0.82;0.82;;;6.60;99.90;;;;;;5036172;28;20259;-81
2022/12/30 01:23:57;;;;;;;0.70;0.70;;;6.50;99.90;;;;;;5034293;28;20202;-81
2022/12/30 01:26:26;;;;;;;1.02;0.63;;;6.50;99.90;;;;;;5034416;28;20212;-81
2022/12/30 01:28:52;;;;;;;0.90;0.90;;;6.50;99.90;;;;;;5033950;28;20285;-82
2022/12/30 01:31:19;;;;;;;2.35;2.15;;;6.50;99.90;;;;;;5034818;28;20195;-79
2022/12/30 01:33:46;;;;;;;7.75;2.45;;;6.40;99.90;;;;;;5035442;28;20219;-82
2022/12/30 01:36:13;;;;;;;4.70;1.80;;;6.50;99.90;;;;;;5037059;28;20438;-81
2022/12/30 01:38:40;;;;;;;2.47;0.98;;;6.40;99.90;;;;;;5038934;28;20538;-79
2022/12/30 01:41:06;;;;;;;0.80;0.80;;;6.40;99.90;;;;;;5037926;28;20745;-82
2022/12/30 01:43:47;;;;;;;0.50;0.50;;;6.40;99.90;;;;;;5038487;28;20290;-81
2022/12/30 01:46:20;;;;;;;1.75;1.38;;;6.30;99.90;;;;;;5041773;28;20237;-80
2022/12/30 01:48:47;;;;;;;0.75;0.70;;;6.30;99.90;;;;;;5044050;28;20253;-79
2022/12/30 01:51:19;;;;;;;1.63;0.88;;;6.30;99.90;;;;;;5037426;28;20744;-80
2022/12/30 01:53:49;;;;;;;1.33;1.23;;;6.30;99.90;;;;;;5037062;28;20203;-80
2022/12/30 01:56:19;;;;;;;1.45;1.33;;;6.20;99.90;;;;;;5037101;28;20303;-80
2022/12/30 01:58:50;;;;;;;0.50;0.50;;;6.30;99.90;;;;;;5037598;28;20219;-79
2022/12/30 02:01:18;;;;;;;0.60;0.50;;;6.20;99.90;;;;;;5037571;28;20176;-81
2022/12/30 02:03:49;;;;;;;2.83;1.77;;;6.20;99.90;;;;;;5036901;28;20282;-79
2022/12/30 02:06:22;;;;;;;0.60;0.60;;;6.20;99.90;;;;;;5037436;28;20648;-81
2022/12/30 02:08:48;;;;;;;0.70;0.60;;;6.20;99.90;;;;;;5036192;28;20203;-82
2022/12/30 02:11:15;;;;;;;0.65;0.65;;;6.20;99.90;;;;;;5037407;28;20199;-80
2022/12/30 02:13:42;;;;;;;0.50;0.40;;;6.20;99.90;;;;;;5037159;28;20205;-81
2022/12/30 02:16:26;;;;;;;2.58;1.17;;;6.20;99.90;;;;;;5036437;28;20254;-81
2022/12/30 02:19:16;;;;;;;44.92;1.55;;;6.20;99.90;;;;;;5037627;28;20545;-79
2022/12/30 02:22:02;;;;;;;4.20;1.13;;;6.20;99.90;;;;;;5037612;28;20195;-84
2022/12/30 02:25:05;;;;;;;4.80;0.80;;;6.20;99.90;;;;;;5036822;28;20176;-81
2022/12/30 02:27:55;;;;;;;9.20;3.22;;;6.20;99.90;;;;;;5037020;28;20234;-80
2022/12/30 02:30:23;;;;;;;5.78;1.45;;;6.20;99.90;;;;;;5037445;28;20638;-82
2022/12/30 02:33:19;;;;;;;0.90;0.60;;;6.20;99.90;;;;;;5036687;28;20199;-80
2022/12/30 02:35:56;;;;;;;2.25;0.50;;;6.30;99.90;;;;;;5036669;28;20267;-81
2022/12/30 02:38:31;;;;;;;0.60;0.60;;;6.30;99.90;;;;;;5037245;28;20604;-81
2022/12/30 02:46:39;;;;;;;0.88;0.60;;;6.30;99.90;;;;;;5035790;28;20223;-80
2022/12/30 02:49:10;;;;;;;0.63;0.63;;;6.30;99.90;;;;;;5036981;28;20270;-80
2022/12/30 02:54:24;;;;;;;6.75;1.15;;;6.40;99.90;;;;;;5036652;28;20221;-80
2022/12/30 02:56:52;;;;;;;1.88;0.70;;;6.30;99.90;;;;;;5036838;28;20219;-81
2022/12/30 03:05:17;;;;;;;1.88;0.88;;;6.30;99.90;;;;;;5036109;28;20174;-82
2022/12/30 03:07:54;;;;;;;0.60;0.60;;;6.30;99.90;;;;;;5036006;28;20211;-84
2022/12/30 03:13:14;;;;;;;9.98;1.15;;;6.10;99.90;;;;;;5036734;28;20195;-81
2022/12/30 03:15:48;;;;;;;3.08;0.73;;;6.20;99.90;;;;;;5035764;28;20187;-83
2022/12/30 03:18:15;;;;;;;0.90;0.50;;;6.20;99.90;;;;;;5036694;28;20271;-80
2022/12/30 03:20:45;;;;;;;0.50;0.40;;;6.10;99.90;;;;;;5036178;28;20199;-81
2022/12/30 03:28:49;;;;;;;18.88;2.53;;;6.10;99.90;;;;;;5036720;28;20186;-81
2022/12/30 03:31:18;;;;;;;0.50;0.40;;;6.10;99.90;;;;;;5036703;28;20270;-80
2022/12/30 03:33:45;;;;;;;5.88;2.92;;;6.10;99.90;;;;;;5036758;28;20593;-80
2022/12/30 03:36:17;;;;;;;0.60;0.60;;;6.00;99.90;;;;;;5036044;28;20215;-81
2022/12/30 03:38:49;;;;;;;1.13;0.70;;;6.00;99.90;;;;;;5036519;28;20218;-83
2022/12/30 03:41:17;;;;;;;0.73;0.73;;;6.00;99.90;;;;;;5035966;28;20257;-78
2022/12/30 03:43:45;;;;;;;0.88;0.88;;;5.90;99.90;;;;;;5036684;28;20676;-80
2022/12/30 03:46:13;;;;;;;0.50;0.40;;;5.90;99.90;;;;;;5035795;28;20306;-80
2022/12/30 03:48:40;;;;;;;4.47;0.95;;;5.90;99.90;;;;;;5094841;22;20214;-75
2022/12/30 03:51:07;;;;;;;4.40;0.60;;;5.90;99.90;;;;;;5020336;28;20211;-78
2022/12/30 03:53:35;;;;;;;8.90;0.80;;;5.90;99.90;;;;;;5030964;28;20191;-78
2022/12/30 03:56:02;;;;;;;0.50;0.50;;;5.90;99.90;;;;;;5032887;28;20195;-78
2022/12/30 03:58:28;;;;;;;0.50;0.40;;;5.90;99.90;;;;;;5033291;28;20246;-78
2022/12/30 04:00:55;;;;;;;0.95;0.70;;;5.90;99.90;;;;;;5016525;28;20606;-78
2022/12/30 04:03:22;;;;;;;0.50;0.40;;;5.90;99.90;;;;;;5017366;28;20753;-78
2022/12/30 04:05:53;;;;;;;0.50;0.50;;;5.90;99.90;;;;;;5016060;28;20235;-78
2022/12/30 04:08:21;;;;;;;0.77;0.77;;;5.90;99.90;;;;;;5015725;28;20199;-76
2022/12/30 04:10:49;;;;;;;0.50;0.40;;;5.90;99.90;;;;;;5012447;28;20758;-77
2022/12/30 04:13:16;;;;;;;0.98;0.80;;;5.90;99.90;;;;;;5012372;28;20196;-76
2022/12/30 04:15:43;;;;;;;12.15;6.72;;;5.90;99.90;;;;;;5011355;28;20272;-76
2022/12/30 04:18:09;;;;;;;1.27;1.23;;;5.90;99.90;;;;;;5012302;28;20697;-77
2022/12/30 04:20:36;;;;;;;2.95;2.67;;;5.80;99.90;;;;;;5012274;28;20330;-77
2022/12/30 04:23:03;;;;;;;0.60;0.50;;;5.80;99.90;;;;;;5012432;28;20287;-77
2022/12/30 04:25:30;;;;;;;0.50;0.40;;;5.80;99.90;;;;;;5012031;28;20629;-78
2022/12/30 04:27:58;;;;;;;0.60;0.40;;;5.70;99.90;;;;;;5011899;28;20275;-75
2022/12/30 04:30:25;;;;;;;0.50;0.40;;;5.70;99.90;;;;;;5012390;28;20761;-76
2022/12/30 04:32:52;;;;;;;0.50;0.40;;;5.60;99.90;;;;;;5012030;28;20195;-77
2022/12/30 04:35:19;;;;;;;3.75;0.80;;;5.60;99.90;;;;;;5011751;28;20254;-76
2022/12/30 04:37:47;;;;;;;6.93;0.82;;;5.50;99.90;;;;;;5011918;28;20635;-76
2022/12/30 04:40:14;;;;;;;0.60;0.60;;;5.50;99.90;;;;;;5012351;28;20307;-76
2022/12/30 04:42:41;;;;;;;0.50;0.40;;;5.40;99.90;;;;;;5012491;28;20206;-76
2022/12/30 04:45:10;;;;;;;0.88;0.75;;;5.50;99.90;;;;;;5011333;28;20202;-77
2022/12/30 04:47:37;;;;;;;0.60;0.50;;;5.50;99.90;;;;;;5011517;28;20282;-76
2022/12/30 04:50:07;;;;;;;0.50;0.40;;;5.50;99.90;;;;;;5011834;28;20697;-76
2022/12/30 04:52:34;;;;;;;8.75;0.75;;;5.40;99.90;;;;;;5012190;28;20195;-75
2022/12/30 04:55:01;;;;;;;1.50;1.02;;;5.30;99.90;;;;;;5011301;28;20630;-76
2022/12/30 04:57:28;;;;;;;2.90;2.70;;;5.40;99.90;;;;;;5011373;28;20690;-76
2022/12/30 04:59:55;;;;;;;2.20;0.70;;;5.40;99.90;;;;;;5011939;28;20303;-77
2022/12/30 05:02:23;;;;;;;0.50;0.40;;;5.40;99.90;;;;;;5012180;28;20602;-77
2022/12/30 05:04:50;;;;;;;0.60;0.60;;;5.30;99.90;;;;;;5010843;28;20200;-76
2022/12/30 05:07:17;;;;;;;3.95;1.50;;;5.30;99.90;;;;;;5011637;28;20295;-77
2022/12/30 05:09:44;;;;;;;1.02;0.93;;;5.30;99.90;;;;;;5011753;28;20223;-76
2022/12/30 05:12:11;;;;;;;0.50;0.40;;;5.30;99.90;;;;;;5015719;28;20287;-76
2022/12/30 05:14:37;;;;;;;0.50;0.40;;;5.30;99.90;;;;;;5014900;28;20196;-77
2022/12/30 05:17:04;;;;;;;0.50;0.40;;;5.30;99.90;;;;;;5015952;28;20227;-76
2022/12/30 05:19:32;;;;;;;0.50;0.40;;;5.30;99.90;;;;;;5014920;28;20223;-74
2022/12/30 05:21:59;;;;;;;3.90;1.02;;;5.30;99.90;;;;;;5015914;28;20242;-76
2022/12/30 05:27:10;;;;;;;0.50;0.40;;;5.40;99.90;;;;;;5015224;28;20172;-76
2022/12/30 05:29:37;;;;;;;2.15;1.10;;;5.30;99.90;;;;;;5015706;28;20303;-76
2022/12/30 05:32:04;;;;;;;0.50;0.50;;;5.30;99.90;;;;;;5015353;28;20612;-76
2022/12/30 05:34:32;;;;;;;0.65;0.45;;;5.30;99.90;;;;;;5014194;28;20200;-76
2022/12/30 05:36:59;;;;;;;2.55;0.88;;;5.40;99.90;;;;;;5015625;28;20224;-76
2022/12/30 05:39:26;;;;;;;1.88;0.65;;;5.40;99.90;;;;;;5014794;28;20216;-76
2022/12/30 05:41:52;;;;;;;5.25;1.25;;;5.40;99.90;;;;;;5015402;28;20287;-76
2022/12/30 05:44:19;;;;;;;1.27;0.93;;;5.40;99.90;;;;;;5014484;28;20199;-76
2022/12/30 05:46:46;;;;;;;0.50;0.40;;;5.40;99.90;;;;;;5015017;28;20196;-76
2022/12/30 05:49:13;;;;;;;4.20;1.02;;;5.50;99.90;;;;;;5014488;28;20251;-77
2022/12/30 05:51:41;;;;;;;0.90;0.50;;;5.40;99.90;;;;;;5015265;28;20202;-76
2022/12/30 05:54:08;;;;;;;0.55;0.50;;;5.50;99.90;;;;;;5013909;28;20203;-76
2022/12/30 05:56:35;;;;;;;0.50;0.40;;;5.50;99.90;;;;;;5015018;28;20577;-76
2022/12/30 05:59:01;;;;;;;1.00;0.90;;;5.50;99.90;;;;;;5014748;28;20593;-76
2022/12/30 06:01:28;;;;;;;0.63;0.55;;;5.50;99.90;;;;;;5014886;28;20680;-76
2022/12/30 06:03:56;;;;;;;0.80;0.80;;;5.40;99.90;;;;;;5013993;28;20730;-76
2022/12/30 06:06:24;;;;;;;0.82;0.60;;;5.40;99.90;;;;;;5016154;28;20665;-78
2022/12/30 06:08:52;;;;;;;0.50;0.40;;;5.50;99.90;;;;;;5013699;28;20701;-76
2022/12/30 06:11:19;;;;;;;0.50;0.47;;;5.50;99.90;;;;;;5014618;28;20192;-77
2022/12/30 06:13:46;;;;;;;1.20;1.02;;;5.50;99.90;;;;;;5014318;28;20204;-76
2022/12/30 06:16:13;;;;;;;13.10;0.82;;;5.50;99.90;;;;;;5013923;28;20200;-76
2022/12/30 06:18:40;;;;;;;0.50;0.50;;;5.50;99.90;;;;;;5013991;28;20308;-76
2022/12/30 06:21:07;;;;;;;2.25;1.02;;;5.50;99.90;;;;;;5014030;28;20199;-76
2022/12/30 06:23:33;;;;;;;0.63;0.57;;;5.50;99.90;;;;;;5013936;28;20203;-77
2022/12/30 06:26:02;;;;;;;16.20;1.85;;;5.60;99.90;;;;;;5013580;28;20634;-76
2022/12/30 06:28:30;;;;;;;9.25;1.92;;;5.60;99.90;;;;;;5014132;28;20188;-76
2022/12/30 06:30:57;;;;;;;0.70;0.70;;;5.60;99.90;;;;;;5014560;28;20211;-77
2022/12/30 06:33:24;;;;;;;0.73;0.50;;;5.70;99.90;;;;;;5014096;28;20287;-76
2022/12/30 06:35:51;;;;;;;0.50;0.40;;;5.70;99.90;;;;;;5013310;28;20202;-76
2022/12/30 06:38:18;;;;;;;2.88;0.98;;;5.70;99.90;;;;;;5013780;28;20243;-76
2022/12/30 06:40:45;;;;;;;0.50;0.40;;;5.70;99.90;;;;;;5014006;28;20216;-77
2022/12/30 06:43:13;;;;;;;0.50;0.40;;;5.70;99.90;;;;;;5014275;28;20196;-77
2022/12/30 06:45:40;;;;;;;4.75;2.55;;;5.70;99.90;;;;;;5013457;28;20196;-76
2022/12/30 06:48:07;;;;;;;0.55;0.50;;;5.70;99.90;;;;;;5013932;28;20196;-77
2022/12/30 06:50:36;;;;;;;0.50;0.50;;;5.70;99.90;;;;;;5013622;28;20255;-76
2022/12/30 06:53:02;;;;;;;0.50;0.40;;;5.70;99.90;;;;;;5014206;28;20196;-76
2022/12/30 06:55:29;;;;;;;12.68;1.15;;;5.70;99.90;;;;;;5013248;28;20609;-76
2022/12/30 06:57:56;;;;;;;4.00;0.60;;;5.70;99.90;;;;;;5013462;28;20238;-76
2022/12/30 07:00:24;;;;;;;5.97;1.75;;;5.70;99.90;;;;;;5013588;28;20216;-76
2022/12/30 07:02:51;;;;;;;0.60;0.50;;;5.70;99.90;;;;;;5013910;28;20196;-77
2022/12/30 07:05:18;;;;;;;0.50;0.40;;;5.80;99.90;;;;;;5012909;28;20285;-76
2022/12/30 07:07:45;;;;;;;0.50;0.40;;;5.80;99.90;;;;;;5013582;28;20206;-76
2022/12/30 07:10:12;;;;;;;1.30;1.20;;;5.80;99.90;;;;;;5011642;28;20255;-77
2022/12/30 07:12:38;;;;;;;0.50;0.50;;;5.90;99.90;;;;;;5013537;28;20196;-76
2022/12/30 07:15:07;;;;;;;0.60;0.60;;;5.90;99.90;;;;;;5012819;28;20302;-77
2022/12/30 07:17:35;;;;;;;0.82;0.82;;;5.90;99.90;;;;;;5013452;28;20507;-77
2022/12/30 07:20:02;;;;;;;8.02;2.45;;;5.90;99.90;;;;;;5013205;28;20685;-77
2022/12/30 07:22:29;;;;;;;1.02;0.82;;;5.90;99.90;;;;;;5013463;28;20192;-77
2022/12/30 07:24:56;;;;;;;0.50;0.40;;;5.90;99.90;;;;;;5011997;28;20200;-77
2022/12/30 07:27:24;;;;;;;1.55;1.45;;;5.90;99.90;;;;;;5013150;28;20196;-77
2022/12/30 07:29:51;;;;;;;0.55;0.55;;;6.00;99.90;;;;;;5013215;28;20313;-77
2022/12/30 07:32:18;;;;;;;0.50;0.50;;;6.00;99.90;;;;;;5013604;28;20618;-77
2022/12/30 07:34:49;;;;;;;6.55;0.70;;;6.00;99.90;;;;;;5007481;28;20257;-77
2022/12/30 07:37:16;;;;;;;1.98;1.88;;;6.10;99.90;;;;;;5009709;28;20702;-77
2022/12/30 07:39:43;;;;;;;14.75;0.90;;;6.10;99.90;;;;;;5011706;28;20230;-77
2022/12/30 07:42:10;;;;;;;1.35;1.25;;;6.10;99.90;;;;;;4998653;28;20280;-79
2022/12/30 07:44:37;;;;;;;0.50;0.40;;;6.10;99.90;;;;;;4992255;28;20567;-77
2022/12/30 07:47:04;;;;;;;6.28;0.68;;;6.20;99.90;;;;;;4993110;28;20256;-78
2022/12/30 07:49:31;;;;;;;0.60;0.50;;;6.20;99.90;;;;;;4991684;28;20653;-77
2022/12/30 07:51:59;;;;;;;0.70;0.60;;;6.30;99.90;;;;;;4992529;28;20681;-77
2022/12/30 07:54:26;;;;;;;0.50;0.40;;;6.30;99.90;;;;;;4992644;28;20622;-76
2022/12/30 07:56:53;;;;;;;1.02;1.02;;;6.30;99.90;;;;;;4993454;28;20570;-77
2022/12/30 07:59:20;;;;;;;0.50;0.50;;;6.30;99.90;;;;;;4992481;28;20220;-77
2022/12/30 08:01:47;;;;;;;5.90;0.82;;;6.40;99.90;;;;;;4992727;28;20201;-76
2022/12/30 08:04:13;;;;;;;1.45;1.45;;;6.50;99.90;;;;;;4991367;28;20464;-77
2022/12/30 08:06:40;;;;;;;0.50;0.40;;;6.50;99.90;;;;;;4992846;28;20224;-77
2022/12/30 08:09:08;;;;;;;0.80;0.80;;;6.50;99.90;;;;;;4992819;28;20219;-77
2022/12/30 08:11:35;;;;;;;0.60;0.50;;;6.60;99.90;;;;;;4992730;28;20284;-74
2022/12/30 08:14:02;;;;;;;0.60;0.60;;;6.60;99.90;;;;;;4992200;28;20291;-77
2022/12/30 08:16:29;;;;;;;0.50;0.40;;;6.60;99.90;;;;;;4992584;28;20197;-77
2022/12/30 08:18:56;;;;;;;0.50;0.40;;;6.70;99.90;;;;;;4992147;28;20310;-78
2022/12/30 08:21:23;;;;;;;1.50;0.75;;;6.80;99.90;;;;;;4992966;28;20203;-77
2022/12/30 08:23:49;;;;;;;0.50;0.40;;;6.80;99.90;;;;;;4992217;28;20232;-76
2022/12/30 08:26:20;;;;;;;1.60;0.65;;;6.80;99.90;;;;;;4992421;28;20291;-77
2022/12/30 08:28:47;;;;;;;0.50;0.40;;;6.90;99.90;;;;;;4992720;28;20188;-77
2022/12/30 08:31:16;;;;;;;0.50;0.40;;;6.90;99.90;;;;;;4992028;28;20686;-77
2022/12/30 08:33:43;;;;;;;0.60;0.52;;;7.00;99.90;;;;;;4992188;28;20203;-77
2022/12/30 08:36:15;;;;;;;1.02;0.70;;;7.10;99.90;;;;;;4992244;28;20574;-76
2022/12/30 08:38:43;;;;;;;2.05;1.95;;;7.10;99.90;;;;;;4992663;28;20212;-77
2022/12/30 08:41:12;;;;;;;0.60;0.60;;;7.20;99.90;;;;;;4991824;28;20200;-77
2022/12/30 08:43:41;;;;;;;0.50;0.40;;;7.20;99.90;;;;;;4992829;28;20574;-76
2022/12/30 08:46:08;;;;;;;0.50;0.40;;;7.30;99.90;;;;;;4990910;28;20211;-77
2022/12/30 08:48:35;;;;;;;0.50;0.45;;;7.30;99.90;;;;;;4990969;28;20203;-76
2022/12/30 08:51:02;;;;;;;2.88;0.80;;;7.40;99.90;;;;;;4992521;28;20204;-77
2022/12/30 08:53:30;;;;;;;0.60;0.55;;;7.50;99.90;;;;;;4992615;28;20725;-78
2022/12/30 08:56:04;;;;;;;0.50;0.47;;;7.50;99.90;;;;;;4991350;28;20196;-77
2022/12/30 08:58:32;;;;;;;2.25;0.50;;;7.50;99.90;;;;;;4992023;28;20239;-76
2022/12/30 09:01:06;;;;;;;0.50;0.40;;;7.60;99.90;;;;;;4992440;28;20269;-77
2022/12/30 09:03:33;;;;;;;2.65;1.35;;;7.60;99.90;;;;;;4992076;28;20191;-77
2022/12/30 09:06:00;;;;;;;0.50;0.40;;;7.60;99.90;;;;;;4991382;28;20206;-76
2022/12/30 09:08:27;;;;;;;0.60;0.40;;;7.70;99.90;;;;;;4992125;28;20291;-76
2022/12/30 09:10:58;;;;;;;0.50;0.40;;;7.80;99.90;;;;;;4991827;28;20224;-77
2022/12/30 09:13:25;;;;;;;0.75;0.63;;;7.80;99.90;;;;;;4992347;28;20279;-77
2022/12/30 09:15:53;;;;;;;0.50;0.40;;;7.90;99.90;;;;;;4991417;28;20215;-77
2022/12/30 09:18:21;;;;;;;0.50;0.40;;;8.00;99.90;;;;;;4992264;28;20288;-77
2022/12/30 09:20:48;;;;;;;1.20;0.85;;;8.10;99.90;;;;;;4991993;28;20221;-77
2022/12/30 09:23:15;;;;;;;1.50;0.75;;;8.20;99.90;;;;;;4992126;28;20219;-76
2022/12/30 09:25:42;;;;;;;1.05;0.50;;;8.30;99.90;;;;;;4991682;28;20201;-76
2022/12/30 09:28:09;;;;;;;5.07;0.95;;;8.50;99.90;;;;;;4992189;28;20204;-77
2022/12/30 09:30:36;;;;;;;0.80;0.50;;;8.60;99.90;;;;;;4991239;28;20706;-75
2022/12/30 09:33:03;;;;;;;0.60;0.50;;;8.60;99.90;;;;;;4992124;28;20204;-77
2022/12/30 09:35:31;;;;;;;13.10;1.95;;;8.60;99.90;;;;;;4991012;28;20296;-77
2022/12/30 09:37:58;;;;;;;0.57;0.45;;;8.60;99.90;;;;;;4992133;28;20197;-77
2022/12/30 09:40:37;;;;;;;1.13;1.00;;;8.60;99.90;;;;;;4991321;28;20216;-77
2022/12/30 09:43:17;;;;;;;1.50;0.50;;;8.60;99.90;;;;;;4991825;28;20200;-77
2022/12/30 09:45:55;;;;;;;1.00;1.00;;;8.60;99.90;;;;;;4991139;28;20215;-76
2022/12/30 09:48:26;;;;;;;0.50;0.50;;;8.70;99.90;;;;;;4990606;28;20357;-77
2022/12/30 09:50:59;;;;;;;3.80;1.15;;;8.70;99.90;;;;;;5092225;22;20249;-82
2022/12/30 09:53:36;;;;;;;1.98;1.35;;;8.70;99.90;;;;;;5066011;28;20201;-84
2022/12/30 09:56:11;;;;;;;0.80;0.80;;;8.70;99.90;;;;;;5062386;28;20225;-83
2022/12/30 09:58:38;;;;;;;0.75;0.60;;;8.80;99.90;;;;;;5066864;28;20210;-83
2022/12/30 10:01:14;;;;;;;0.50;0.40;;;8.80;99.90;;;;;;5067877;28;20240;-80
2022/12/30 10:03:41;;;;;;;1.80;0.40;;;8.80;99.90;;;;;;5068657;28;20205;-78
2022/12/30 10:06:20;;;;;;;0.50;0.40;;;8.90;99.90;;;;;;5067434;28;20234;-84
2022/12/30 10:09:14;;;;;;;4.47;0.73;;;9.00;99.90;;;;;;5068445;28;20214;-83
2022/12/30 10:11:53;;;;;;;2.08;0.73;;;9.10;99.90;;;;;;5067723;28;20298;-78
2022/12/30 10:14:29;;;;;;;2.80;0.70;;;9.20;99.90;;;;;;5068069;28;20232;-79
2022/12/30 10:17:06;;;;;;;2.20;1.60;;;9.20;99.90;;;;;;5066025;28;20297;-81
2022/12/30 10:19:46;;;;;;;2.15;1.00;;;9.40;99.90;;;;;;5064320;28;20257;-82
2022/12/30 10:22:23;;;;;;;0.60;0.52;;;9.60;99.90;;;;;;5062378;28;20289;-80
2022/12/30 10:25:13;;;;;;;0.77;0.40;;;9.50;99.90;;;;;;5064745;28;20281;-86
2022/12/30 10:27:46;;;;;;;0.50;0.40;;;9.60;99.90;;;;;;5065257;28;20226;-81
2022/12/30 10:30:16;;;;;;;1.55;1.55;;;9.70;99.90;;;;;;5066663;28;20696;-81
2022/12/30 10:32:49;;;;;;;0.77;0.60;;;9.70;99.90;;;;;;5068279;28;20206;-79
2022/12/30 10:35:21;;;;;;;0.77;0.65;;;9.70;99.90;;;;;;5068374;28;20904;-80
2022/12/30 10:37:54;;;;;;;1.90;1.70;;;9.70;99.90;;;;;;5069094;28;20250;-84
2022/12/30 10:40:25;;;;;;;1.37;1.03;;;9.70;99.90;;;;;;5068207;28;20526;-79
2022/12/30 10:43:05;;;;;;;1.13;0.70;;;9.90;99.90;;;;;;5066708;28;20497;-83
2022/12/30 10:45:50;;;;;;;1.25;0.60;;;10.00;99.90;;;;;;5068427;28;20175;-83
2022/12/30 10:48:37;;;;;;;1.17;0.60;;;10.00;99.90;;;;;;5065051;28;20278;-81
2022/12/30 10:51:06;;;;;;;0.60;0.60;;;10.00;99.90;;;;;;5063287;28;20661;-78
2022/12/30 10:53:34;;;;;;;0.50;0.40;;;9.90;99.90;;;;;;5065021;28;20512;-81
2022/12/30 10:56:03;;;;;;;11.93;0.68;;;9.90;99.90;;;;;;5064688;28;20226;-80
2022/12/30 10:58:35;;;;;;;0.82;0.82;;;9.80;99.90;;;;;;5064835;28;20726;-81
2022/12/30 11:01:02;;;;;;;1.52;0.98;;;9.70;99.90;;;;;;5065555;28;20226;-80
2022/12/30 11:03:39;;;;;;;0.50;0.40;;;9.60;99.90;;;;;;5063996;28;20205;-78
2022/12/30 11:06:19;;;;;;;1.95;1.40;;;9.50;99.90;;;;;;5065480;28;20202;-82
2022/12/30 11:08:47;;;;;;;0.82;0.60;;;9.40;99.90;;;;;;5065697;28;20178;-83
2022/12/30 11:11:15;;;;;;;0.77;0.73;;;9.40;99.90;;;;;;5067254;28;20215;-83
2022/12/30 11:16:28;;;;;;;0.60;0.60;;;9.40;99.90;;;;;;5064014;28;20220;-81
2022/12/30 11:18:56;;;;;;;0.50;0.40;;;9.30;99.90;;;;;;5062340;28;20266;-81
2022/12/30 11:21:28;;;;;;;1.50;0.93;;;9.20;99.90;;;;;;5063803;28;20223;-81
2022/12/30 11:23:58;;;;;;;1.20;1.20;;;9.20;99.90;;;;;;5063332;28;20202;-83
2022/12/30 11:26:27;;;;;;;0.50;0.40;;;9.20;99.90;;;;;;5063794;28;20286;-81
2022/12/30 11:28:56;;;;;;;4.85;2.05;;;9.10;99.90;;;;;;5065317;28;20222;-83
2022/12/30 11:31:32;;;;;;;1.03;0.93;;;9.10;99.90;;;;;;5065304;28;20250;-79
2022/12/30 11:34:01;;;;;;;2.77;0.57;;;9.10;99.90;;;;;;5063880;28;20844;-82
2022/12/30 11:36:35;;;;;;;0.80;0.80;;;9.10;99.90;;;;;;5068454;28;20433;-82
2022/12/30 11:39:26;;;;;;;7.22;0.70;;;9.10;99.90;;;;;;5065050;28;20421;-81
2022/12/30 11:41:55;;;;;;;2.58;0.50;;;9.00;99.90;;;;;;5065103;28;20171;-87
2022/12/30 11:44:24;;;;;;;0.50;0.40;;;9.10;99.90;;;;;;5064351;28;20202;-82
2022/12/30 11:46:54;;;;;;;1.95;0.75;;;9.00;99.90;;;;;;5064859;28;20195;-84
2022/12/30 11:49:27;;;;;;;0.60;0.52;;;9.00;99.90;;;;;;5063158;28;20229;-81
2022/12/30 11:51:56;;;;;;;22.38;0.98;;;9.00;99.90;;;;;;5063452;28;20202;-81
2022/12/30 11:54:26;;;;;;;3.33;1.00;;;9.00;99.90;;;;;;5062869;28;20210;-83
2022/12/30 11:56:55;;;;;;;5.05;0.77;;;9.00;99.90;;;;;;5064742;28;20210;-83
2022/12/30 11:59:25;;;;;;;2.72;1.10;;;9.00;99.90;;;;;;5064151;28;20277;-83
2022/12/30 12:01:56;;;;;;;2.38;1.25;;;8.90;99.90;;;;;;5064434;28;20195;-83
2022/12/30 12:04:39;;;;;;;1.13;0.80;;;8.90;99.90;;;;;;5064366;28;20206;-80
2022/12/30 12:07:19;;;;;;;2.53;0.80;;;8.90;99.90;;;;;;5064052;28;20190;-79
2022/12/30 12:09:52;;;;;;;2.35;1.20;;;9.00;99.90;;;;;;5064394;28;20711;-80
2022/12/30 12:12:24;;;;;;;1.55;1.02;;;9.00;99.90;;;;;;5062312;28;20270;-82
2022/12/30 12:15:03;;;;;;;0.80;0.70;;;8.90;99.90;;;;;;5062502;28;20297;-81
2022/12/30 12:17:41;;;;;;;0.60;0.50;;;9.00;99.90;;;;;;5061796;28;20250;-78
2022/12/30 12:20:15;;;;;;;2.00;0.77;;;9.00;99.90;;;;;;5060384;28;20219;-80
2022/12/30 12:22:49;;;;;;;0.80;0.40;;;9.00;99.90;;;;;;5060797;28;20262;-80
2022/12/30 12:25:22;;;;;;;2.35;1.05;;;9.00;99.90;;;;;;5060830;28;20185;-81
2022/12/30 12:27:50;;;;;;;9.23;1.23;;;9.10;99.90;;;;;;5064345;28;20324;-84
2022/12/30 12:30:17;;;;;;;0.60;0.60;;;9.10;99.90;;;;;;5060328;28;20225;-80
2022/12/30 12:33:07;;;;;;;1.70;1.23;;;9.10;99.90;;;;;;5059891;28;20198;-80
2022/12/30 12:35:42;;;;;;;1.15;0.93;;;9.10;99.90;;;;;;5058099;28;20262;-82
2022/12/30 12:38:24;;;;;;;3.17;1.92;;;9.10;99.90;;;;;;5060846;28;20320;-81
2022/12/30 12:41:05;;;;;;;2.50;1.25;;;9.10;99.90;;;;;;5061182;28;20253;-85
2022/12/30 12:43:48;;;;;;;1.40;0.70;;;9.10;99.90;;;;;;5059582;28;20213;-81
2022/12/30 12:46:28;;;;;;;2.80;0.60;;;9.10;99.90;;;;;;5058832;28;20247;-81
2022/12/30 12:49:21;;;;;;;0.50;0.40;;;9.20;99.90;;;;;;5059199;28;20189;-81
2022/12/30 12:52:04;;;;;;;3.70;1.90;;;9.20;99.90;;;;;;5060930;28;20209;-81
2022/12/30 12:55:02;;;;;;;0.50;0.40;;;9.20;99.90;;;;;;5060008;28;20185;-81
2022/12/30 12:57:39;;;;;;;1.35;1.25;;;9.30;99.90;;;;;;5058419;28;20527;-82
2022/12/30 13:00:10;;;;;;;0.85;0.70;;;9.30;99.90;;;;;;5059539;28;20301;-81
2022/12/30 13:03:15;;;;;;;0.75;0.75;;;9.30;99.90;;;;;;5059416;28;20195;-82
2022/12/30 13:05:53;;;;;;;1.40;1.30;;;9.30;99.90;;;;;;5057345;28;20252;-81
2022/12/30 13:08:38;;;;;;;0.60;0.60;;;9.40;99.90;;;;;;5059282;28;20182;-81
2022/12/30 13:11:13;;;;;;;0.90;0.77;;;9.30;99.90;;;;;;5059902;28;20222;-80
2022/12/30 13:13:46;;;;;;;1.73;1.45;;;9.30;99.90;;;;;;5058965;28;20687;-82
2022/12/30 13:16:17;;;;;;;0.93;0.77;;;9.40;99.90;;;;;;5059782;28;20214;-83
2022/12/30 13:18:46;;;;;;;1.15;0.85;;;9.40;99.90;;;;;;5060643;28;20261;-80
2022/12/30 13:21:18;;;;;;;1.27;1.00;;;9.40;99.90;;;;;;5060120;28;20232;-82
2022/12/30 13:23:49;;;;;;;4.22;0.70;;;9.40;99.90;;;;;;5057858;28;20712;-82
2022/12/30 13:26:16;;;;;;;0.50;0.40;;;9.40;99.90;;;;;;5060813;28;20266;-82
2022/12/30 13:28:51;;;;;;;0.60;0.50;;;9.40;99.90;;;;;;5059003;28;20262;-81
2022/12/30 13:31:29;;;;;;;2.05;1.83;;;9.20;99.90;;;;;;5061067;28;20277;-86
2022/12/30 13:34:07;;;;;;;0.70;0.70;;;9.10;99.90;;;;;;5061242;28;20205;-82
2022/12/30 13:36:38;;;;;;;0.60;0.50;;;9.00;99.90;;;;;;5063582;28;20246;-80
2022/12/30 13:39:17;;;;;;;0.70;0.70;;;8.80;99.90;;;;;;5065856;28;20275;-81
2022/12/30 13:42:23;;;;;;;4.35;0.75;;;8.60;99.90;;;;;;5063729;28;20282;-82
2022/12/30 13:44:52;;;;;;;0.50;0.40;;;8.50;99.90;;;;;;5061926;28;20273;-80
2022/12/30 13:47:33;;;;;;;0.60;0.50;;;8.30;99.90;;;;;;5064351;28;20222;-83
2022/12/30 13:50:00;;;;;;;1.98;0.80;;;8.30;99.90;;;;;;5062874;28;20595;-81
2022/12/30 13:52:30;;;;;;;0.50;0.50;;;8.20;99.90;;;;;;5064628;28;20237;-82
2022/12/30 13:54:58;;;;;;;0.60;0.60;;;8.10;99.90;;;;;;5063721;28;20724;-81
2022/12/30 13:57:30;;;;;;;1.27;0.82;;;8.10;99.90;;;;;;5064430;28;20253;-82
2022/12/30 14:00:25;;;;;;;1.45;0.65;;;8.10;99.90;;;;;;5065251;28;20278;-84
2022/12/30 14:03:10;;;;;;;0.60;0.57;;;8.00;99.90;;;;;;5065673;28;20251;-84
2022/12/30 14:05:59;;;;;;;1.13;0.50;;;8.00;99.90;;;;;;5063640;28;20203;-81
2022/12/30 14:09:09;;;;;;;5.38;0.70;;;8.00;99.90;;;;;;5068937;28;20218;-80
2022/12/30 14:11:36;;;;;;;1.05;0.85;;;8.00;99.90;;;;;;5065662;28;20217;-81
2022/12/30 14:14:17;;;;;;;0.65;0.65;;;7.90;99.90;;;;;;5068014;28;20676;-82